SKA17 LFRB-LFLL
Flight info
| Callsign | SKA17 |
|---|---|
| Flight time | 1h 12m |
| Altitude | 33000 |
| Route | ROSPO DCT DEGEX DCT KORER DCT LEMKA DCT BEBIX/N0457F340 DCT VALKU DCT LABAL DCT LESPI |
| Aircraft | A20N/M-SDE2E3FGHIRWXY/LB1 |
Departure
| Time | 2026-04-24 22:29 |
|---|---|
| Airport | Brest Bretagne airport (LFRB) |
Arrival
| Time | 2026-04-24 23:41 |
|---|---|
| Airport | Lyon Saint-Exupéry Airport (LFLL) |
| Time | Latitude | Longitude | Altitude | Speed | Heading |
|---|---|---|---|---|---|
| 2026-04-24 22:07 | 48.44344 | -4.42221 | 317 ft | 0 kts | 156° |
| 2026-04-24 22:19 | 48.44349 | -4.42224 | 317 ft | 2 kts | 156° |
| 2026-04-24 22:19 | 48.44360 | -4.42231 | 317 ft | 0 kts | 156° |
| 2026-04-24 22:19 | 48.44371 | -4.42241 | 317 ft | 2 kts | 127° |
| 2026-04-24 22:20 | 48.44377 | -4.42262 | 317 ft | 2 kts | 93° |
| 2026-04-24 22:20 | 48.44374 | -4.42284 | 317 ft | 2 kts | 57° |
| 2026-04-24 22:20 | 48.44369 | -4.42293 | 317 ft | 1 kts | 38° |
| 2026-04-24 22:20 | 48.44364 | -4.42298 | 317 ft | 0 kts | 41° |
| 2026-04-24 22:23 | 48.44372 | -4.42287 | 317 ft | 4 kts | 41° |
| 2026-04-24 22:23 | 48.44414 | -4.42233 | 317 ft | 11 kts | 41° |
| 2026-04-24 22:23 | 48.44488 | -4.42135 | 317 ft | 15 kts | 43° |
| 2026-04-24 22:24 | 48.44584 | -4.42106 | 317 ft | 14 kts | 342° |
| 2026-04-24 22:24 | 48.44677 | -4.42144 | 317 ft | 13 kts | 5° |
| 2026-04-24 22:24 | 48.44741 | -4.42050 | 318 ft | 13 kts | 67° |
| 2026-04-24 22:24 | 48.44774 | -4.41913 | 319 ft | 14 kts | 72° |
| 2026-04-24 22:25 | 48.44810 | -4.41755 | 321 ft | 17 kts | 71° |
| 2026-04-24 22:25 | 48.44853 | -4.41564 | 322 ft | 20 kts | 71° |
| 2026-04-24 22:25 | 48.44901 | -4.41352 | 329 ft | 21 kts | 71° |
| 2026-04-24 22:25 | 48.44947 | -4.41141 | 330 ft | 21 kts | 71° |
| 2026-04-24 22:26 | 48.44995 | -4.40934 | 328 ft | 21 kts | 71° |
| 2026-04-24 22:26 | 48.45042 | -4.40718 | 323 ft | 22 kts | 71° |
| 2026-04-24 22:26 | 48.45095 | -4.40484 | 317 ft | 24 kts | 71° |
| 2026-04-24 22:26 | 48.45152 | -4.40232 | 311 ft | 26 kts | 71° |
| 2026-04-24 22:27 | 48.45198 | -4.40000 | 309 ft | 15 kts | 85° |
| 2026-04-24 22:27 | 48.45209 | -4.39886 | 309 ft | 10 kts | 22° |
| 2026-04-24 22:27 | 48.45227 | -4.39952 | 309 ft | 10 kts | 236° |
| 2026-04-24 22:27 | 48.45193 | -4.40052 | 309 ft | 11 kts | 250° |
| 2026-04-24 22:28 | 48.45168 | -4.40165 | 310 ft | 11 kts | 252° |
| 2026-04-24 22:28 | 48.45088 | -4.40522 | 318 ft | 74 kts | 251° |
| 2026-04-24 22:28 | 48.44836 | -4.41629 | 321 ft | 145 kts | 251° |
| 2026-04-24 22:28 | 48.44461 | -4.43287 | 556 ft | 182 kts | 251° |
| 2026-04-24 22:29 | 48.43677 | -4.46777 | 2221 ft | 178 kts | 249° |
| 2026-04-24 22:29 | 48.43261 | -4.48607 | 2726 ft | 193 kts | 249° |
| 2026-04-24 22:29 | 48.42812 | -4.50573 | 3200 ft | 210 kts | 249° |
| 2026-04-24 22:30 | 48.42478 | -4.52749 | 3747 ft | 224 kts | 271° |
| 2026-04-24 22:30 | 48.43059 | -4.54903 | 4461 ft | 227 kts | 313° |
| 2026-04-24 22:30 | 48.44387 | -4.56059 | 5237 ft | 224 kts | 350° |
| 2026-04-24 22:30 | 48.45892 | -4.55852 | 5980 ft | 222 kts | 25° |
| 2026-04-24 22:31 | 48.47035 | -4.54413 | 6698 ft | 221 kts | 57° |
| 2026-04-24 22:31 | 48.47819 | -4.52429 | 7429 ft | 223 kts | 60° |
| 2026-04-24 22:31 | 48.48613 | -4.50416 | 8128 ft | 227 kts | 60° |
| 2026-04-24 22:31 | 48.49429 | -4.48389 | 8827 ft | 229 kts | 60° |
| 2026-04-24 22:32 | 48.49959 | -4.46161 | 9479 ft | 232 kts | 86° |
| 2026-04-24 22:32 | 48.49669 | -4.43802 | 10090 ft | 238 kts | 115° |
| 2026-04-24 22:32 | 48.48612 | -4.41818 | 10444 ft | 257 kts | 138° |
| 2026-04-24 22:32 | 48.47195 | -4.40018 | 10940 ft | 270 kts | 140° |
| 2026-04-24 22:33 | 48.45758 | -4.38221 | 11667 ft | 273 kts | 140° |
| 2026-04-24 22:33 | 48.44304 | -4.36387 | 12407 ft | 275 kts | 140° |
| 2026-04-24 22:33 | 48.42860 | -4.34549 | 13098 ft | 278 kts | 140° |
| 2026-04-24 22:33 | 48.41385 | -4.32662 | 13769 ft | 282 kts | 141° |
| 2026-04-24 22:34 | 48.39896 | -4.30759 | 14427 ft | 285 kts | 140° |
| 2026-04-24 22:34 | 48.38370 | -4.28806 | 15117 ft | 288 kts | 140° |
| 2026-04-24 22:34 | 48.36865 | -4.26875 | 15830 ft | 288 kts | 140° |
| 2026-04-24 22:34 | 48.35344 | -4.24920 | 16494 ft | 290 kts | 140° |
| 2026-04-24 22:35 | 48.33816 | -4.22956 | 17138 ft | 292 kts | 141° |
| 2026-04-24 22:35 | 48.32284 | -4.20989 | 17778 ft | 294 kts | 141° |
| 2026-04-24 22:35 | 48.30724 | -4.18991 | 18387 ft | 297 kts | 141° |
| 2026-04-24 22:35 | 48.29153 | -4.16983 | 18992 ft | 299 kts | 142° |
| 2026-04-24 22:36 | 48.27620 | -4.15026 | 19581 ft | 301 kts | 142° |
| 2026-04-24 22:36 | 48.26015 | -4.12976 | 20076 ft | 307 kts | 142° |
| 2026-04-24 22:36 | 48.24356 | -4.10865 | 20334 ft | 322 kts | 142° |
| 2026-04-24 22:36 | 48.22609 | -4.08642 | 20596 ft | 336 kts | 142° |
| 2026-04-24 22:37 | 48.20811 | -4.06354 | 20842 ft | 350 kts | 142° |
| 2026-04-24 22:37 | 48.18903 | -4.03926 | 21088 ft | 364 kts | 142° |
| 2026-04-24 22:37 | 48.16960 | -4.01456 | 21319 ft | 377 kts | 142° |
| 2026-04-24 22:37 | 48.14925 | -3.98869 | 21541 ft | 389 kts | 142° |
| 2026-04-24 22:38 | 48.12845 | -3.96227 | 21761 ft | 401 kts | 142° |
| 2026-04-24 22:38 | 48.10692 | -3.93494 | 22108 ft | 408 kts | 142° |
| 2026-04-24 22:38 | 48.08530 | -3.90750 | 22608 ft | 411 kts | 142° |
| 2026-04-24 22:38 | 48.06364 | -3.88003 | 23120 ft | 413 kts | 142° |
| 2026-04-24 22:39 | 48.04160 | -3.85213 | 23619 ft | 416 kts | 142° |
| 2026-04-24 22:39 | 48.01966 | -3.82444 | 24099 ft | 418 kts | 142° |
| 2026-04-24 22:39 | 47.99737 | -3.79632 | 24560 ft | 421 kts | 142° |
| 2026-04-24 22:39 | 47.97601 | -3.76645 | 25000 ft | 426 kts | 135° |
| 2026-04-24 22:40 | 47.95675 | -3.73207 | 25426 ft | 431 kts | 128° |
| 2026-04-24 22:40 | 47.94070 | -3.69492 | 25840 ft | 435 kts | 122° |
| 2026-04-24 22:40 | 47.92605 | -3.65536 | 26257 ft | 438 kts | 121° |
| 2026-04-24 22:40 | 47.91159 | -3.61530 | 26643 ft | 441 kts | 120° |
| 2026-04-24 22:41 | 47.89713 | -3.57517 | 27021 ft | 443 kts | 120° |
| 2026-04-24 22:41 | 47.88250 | -3.53472 | 27420 ft | 445 kts | 120° |
| 2026-04-24 22:41 | 47.86777 | -3.49419 | 27800 ft | 447 kts | 120° |
| 2026-04-24 22:41 | 47.85309 | -3.45394 | 28151 ft | 449 kts | 121° |
| 2026-04-24 22:42 | 47.83808 | -3.41290 | 28487 ft | 451 kts | 120° |
| 2026-04-24 22:42 | 47.82291 | -3.37153 | 28815 ft | 453 kts | 121° |
| 2026-04-24 22:42 | 47.80798 | -3.33085 | 29117 ft | 454 kts | 121° |
| 2026-04-24 22:42 | 47.79281 | -3.28964 | 29509 ft | 454 kts | 121° |
| 2026-04-24 22:43 | 47.77779 | -3.24861 | 29952 ft | 453 kts | 120° |
| 2026-04-24 22:43 | 47.76427 | -3.20668 | 30369 ft | 453 kts | 116° |
| 2026-04-24 22:43 | 47.75272 | -3.16280 | 30775 ft | 453 kts | 111° |
| 2026-04-24 22:43 | 47.74353 | -3.11827 | 31166 ft | 453 kts | 107° |
| 2026-04-24 22:44 | 47.73665 | -3.07320 | 31528 ft | 454 kts | 103° |
| 2026-04-24 22:44 | 47.73178 | -3.02653 | 31814 ft | 456 kts | 100° |
| 2026-04-24 22:44 | 47.72769 | -2.97992 | 32056 ft | 458 kts | 99° |
| 2026-04-24 22:44 | 47.72371 | -2.93334 | 32312 ft | 459 kts | 99° |
| 2026-04-24 22:45 | 47.71969 | -2.88655 | 32550 ft | 460 kts | 99° |
| 2026-04-24 22:45 | 47.71558 | -2.83946 | 32776 ft | 461 kts | 99° |
| 2026-04-24 22:45 | 47.71138 | -2.79218 | 32990 ft | 462 kts | 99° |
| 2026-04-24 22:45 | 47.70722 | -2.74552 | 33127 ft | 463 kts | 99° |
| 2026-04-24 22:46 | 47.69865 | -2.65087 | 33133 ft | 464 kts | 100° |
| 2026-04-24 22:46 | 47.68520 | -2.55818 | 33132 ft | 462 kts | 108° |
| 2026-04-24 22:47 | 47.66306 | -2.46949 | 33132 ft | 460 kts | 116° |
| 2026-04-24 22:47 | 47.63269 | -2.38655 | 33129 ft | 458 kts | 124° |
| 2026-04-24 22:48 | 47.59755 | -2.30866 | 33125 ft | 457 kts | 126° |
| 2026-04-24 22:48 | 47.56187 | -2.23043 | 33123 ft | 458 kts | 126° |
| 2026-04-24 22:49 | 47.52626 | -2.15233 | 33123 ft | 459 kts | 126° |
| 2026-04-24 22:49 | 47.49058 | -2.07421 | 33124 ft | 459 kts | 126° |
| 2026-04-24 22:50 | 47.45509 | -1.99668 | 33125 ft | 459 kts | 126° |
| 2026-04-24 22:50 | 47.41932 | -1.91882 | 33123 ft | 460 kts | 126° |
| 2026-04-24 22:51 | 47.38342 | -1.84082 | 33119 ft | 460 kts | 126° |
| 2026-04-24 22:51 | 47.34749 | -1.76300 | 33117 ft | 460 kts | 125° |
| 2026-04-24 22:52 | 47.31129 | -1.68480 | 33115 ft | 461 kts | 125° |
| 2026-04-24 22:52 | 47.27511 | -1.60685 | 33118 ft | 461 kts | 125° |
| 2026-04-24 22:53 | 47.23905 | -1.52942 | 33119 ft | 462 kts | 125° |
| 2026-04-24 22:53 | 47.20256 | -1.45127 | 33119 ft | 463 kts | 125° |
| 2026-04-24 22:54 | 47.16620 | -1.37365 | 33113 ft | 463 kts | 125° |
| 2026-04-24 22:54 | 47.12988 | -1.29630 | 33111 ft | 462 kts | 126° |
| 2026-04-24 22:55 | 47.09340 | -1.21880 | 33109 ft | 463 kts | 126° |
| 2026-04-24 22:55 | 47.05683 | -1.14137 | 33106 ft | 463 kts | 126° |
| 2026-04-24 22:56 | 47.02017 | -1.06394 | 33103 ft | 464 kts | 126° |
| 2026-04-24 22:56 | 46.98334 | -0.98639 | 33102 ft | 464 kts | 126° |
| 2026-04-24 22:57 | 46.94646 | -0.90890 | 33098 ft | 465 kts | 126° |
| 2026-04-24 22:57 | 46.90962 | -0.83172 | 33100 ft | 466 kts | 126° |
| 2026-04-24 22:58 | 46.87264 | -0.75448 | 33101 ft | 466 kts | 126° |
| 2026-04-24 22:58 | 46.83599 | -0.67815 | 33103 ft | 466 kts | 126° |
| 2026-04-24 22:59 | 46.79890 | -0.60112 | 33105 ft | 467 kts | 126° |
| 2026-04-24 23:00 | 46.74330 | -0.48596 | 33107 ft | 468 kts | 126° |
| 2026-04-24 23:00 | 46.70594 | -0.40884 | 33109 ft | 468 kts | 126° |
| 2026-04-24 23:01 | 46.66891 | -0.33260 | 33107 ft | 469 kts | 127° |
| 2026-04-24 23:01 | 46.63116 | -0.25405 | 33108 ft | 470 kts | 124° |
| 2026-04-24 23:02 | 46.59749 | -0.17273 | 33110 ft | 471 kts | 121° |
| 2026-04-24 23:02 | 46.56469 | -0.09105 | 33111 ft | 471 kts | 121° |
| 2026-04-24 23:03 | 46.53169 | -0.00903 | 33111 ft | 471 kts | 121° |
| 2026-04-24 23:03 | 46.49863 | 0.07284 | 33110 ft | 471 kts | 121° |
| 2026-04-24 23:04 | 46.46542 | 0.15481 | 33109 ft | 472 kts | 121° |
| 2026-04-24 23:04 | 46.43218 | 0.23665 | 33112 ft | 472 kts | 121° |
| 2026-04-24 23:05 | 46.39900 | 0.31806 | 33112 ft | 473 kts | 121° |
| 2026-04-24 23:05 | 46.36557 | 0.39985 | 33110 ft | 473 kts | 121° |
| 2026-04-24 23:06 | 46.33209 | 0.48152 | 33105 ft | 474 kts | 121° |
| 2026-04-24 23:06 | 46.29927 | 0.56133 | 33105 ft | 474 kts | 121° |
| 2026-04-24 23:07 | 46.26603 | 0.64196 | 33103 ft | 474 kts | 121° |
| 2026-04-24 23:07 | 46.23241 | 0.72328 | 33100 ft | 475 kts | 122° |
| 2026-04-24 23:08 | 46.19926 | 0.80320 | 33101 ft | 476 kts | 122° |
| 2026-04-24 23:08 | 46.16623 | 0.88262 | 33107 ft | 476 kts | 122° |
| 2026-04-24 23:09 | 46.13235 | 0.96386 | 33114 ft | 476 kts | 122° |
| 2026-04-24 23:09 | 46.09818 | 1.04560 | 33114 ft | 476 kts | 122° |
| 2026-04-24 23:10 | 46.06426 | 1.12653 | 33116 ft | 476 kts | 122° |
| 2026-04-24 23:10 | 46.03004 | 1.20793 | 33113 ft | 477 kts | 122° |
| 2026-04-24 23:11 | 45.99604 | 1.28930 | 33110 ft | 477 kts | 119° |
| 2026-04-24 23:11 | 45.96963 | 1.37653 | 33114 ft | 479 kts | 108° |
| 2026-04-24 23:12 | 45.95568 | 1.46993 | 33109 ft | 480 kts | 96° |
| 2026-04-24 23:12 | 45.95456 | 1.56520 | 33115 ft | 480 kts | 86° |
| 2026-04-24 23:13 | 45.95853 | 1.66055 | 33112 ft | 480 kts | 86° |
| 2026-04-24 23:13 | 45.96241 | 1.75347 | 33114 ft | 480 kts | 86° |
| 2026-04-24 23:14 | 45.96609 | 1.84857 | 33116 ft | 481 kts | 86° |
| 2026-04-24 23:14 | 45.96963 | 1.94439 | 33121 ft | 481 kts | 86° |
| 2026-04-24 23:15 | 45.97306 | 2.03994 | 33120 ft | 481 kts | 86° |
| 2026-04-24 23:15 | 45.97643 | 2.13589 | 33124 ft | 482 kts | 86° |
| 2026-04-24 23:16 | 45.97964 | 2.22949 | 33125 ft | 482 kts | 86° |
| 2026-04-24 23:16 | 45.98283 | 2.32515 | 33126 ft | 483 kts | 86° |
| 2026-04-24 23:17 | 45.98596 | 2.42140 | 33127 ft | 484 kts | 86° |
| 2026-04-24 23:17 | 45.98903 | 2.51828 | 33120 ft | 484 kts | 86° |
| 2026-04-24 23:18 | 45.99202 | 2.61454 | 33122 ft | 484 kts | 86° |
| 2026-04-24 23:18 | 45.99487 | 2.70895 | 33126 ft | 485 kts | 87° |
| 2026-04-24 23:19 | 45.99763 | 2.80323 | 33129 ft | 484 kts | 86° |
| 2026-04-24 23:19 | 46.00249 | 2.89975 | 33132 ft | 485 kts | 84° |
| 2026-04-24 23:20 | 46.00794 | 2.99588 | 33127 ft | 486 kts | 84° |
| 2026-04-24 23:20 | 46.01329 | 3.09224 | 32770 ft | 481 kts | 84° |
| 2026-04-24 23:20 | 46.01591 | 3.14021 | 31915 ft | 483 kts | 84° |
| 2026-04-24 23:21 | 46.01853 | 3.18815 | 30816 ft | 489 kts | 84° |
| 2026-04-24 23:21 | 46.02114 | 3.23656 | 29681 ft | 494 kts | 84° |
| 2026-04-24 23:21 | 46.02351 | 3.28149 | 28685 ft | 497 kts | 84° |
| 2026-04-24 23:21 | 46.02643 | 3.33054 | 27837 ft | 494 kts | 82° |
| 2026-04-24 23:22 | 46.03108 | 3.37915 | 27213 ft | 487 kts | 78° |
| 2026-04-24 23:22 | 46.03728 | 3.42581 | 26648 ft | 480 kts | 76° |
| 2026-04-24 23:22 | 46.04403 | 3.47267 | 26091 ft | 473 kts | 76° |
| 2026-04-24 23:22 | 46.05071 | 3.51830 | 25545 ft | 468 kts | 76° |
| 2026-04-24 23:23 | 46.05738 | 3.56403 | 24998 ft | 463 kts | 75° |
| 2026-04-24 23:23 | 46.06384 | 3.60856 | 24461 ft | 458 kts | 75° |
| 2026-04-24 23:23 | 46.06980 | 3.64994 | 23950 ft | 455 kts | 75° |
| 2026-04-24 23:23 | 46.07628 | 3.69521 | 23398 ft | 450 kts | 76° |
| 2026-04-24 23:24 | 46.08254 | 3.73908 | 22868 ft | 446 kts | 76° |
| 2026-04-24 23:24 | 46.08874 | 3.78257 | 22343 ft | 443 kts | 76° |
| 2026-04-24 23:24 | 46.09479 | 3.82523 | 21813 ft | 440 kts | 77° |
| 2026-04-24 23:24 | 46.10087 | 3.86836 | 21279 ft | 437 kts | 77° |
| 2026-04-24 23:25 | 46.10675 | 3.91064 | 20748 ft | 433 kts | 78° |
| 2026-04-24 23:25 | 46.10920 | 3.95350 | 20221 ft | 432 kts | 90° |
| 2026-04-24 23:25 | 46.10572 | 3.99614 | 19704 ft | 429 kts | 102° |
| 2026-04-24 23:25 | 46.09817 | 4.03612 | 19203 ft | 425 kts | 106° |
| 2026-04-24 23:26 | 46.08956 | 4.07661 | 18673 ft | 422 kts | 107° |
| 2026-04-24 23:26 | 46.08104 | 4.11629 | 18162 ft | 418 kts | 107° |
| 2026-04-24 23:26 | 46.07252 | 4.15631 | 17630 ft | 415 kts | 107° |
| 2026-04-24 23:26 | 46.06424 | 4.19558 | 17114 ft | 411 kts | 107° |
| 2026-04-24 23:27 | 46.05610 | 4.23445 | 16599 ft | 408 kts | 107° |
| 2026-04-24 23:27 | 46.04832 | 4.27163 | 16101 ft | 404 kts | 107° |
| 2026-04-24 23:27 | 46.04037 | 4.30978 | 15588 ft | 401 kts | 107° |
| 2026-04-24 23:27 | 46.03239 | 4.34804 | 15073 ft | 397 kts | 107° |
| 2026-04-24 23:28 | 46.02451 | 4.38572 | 14566 ft | 393 kts | 107° |
| 2026-04-24 23:28 | 46.01667 | 4.42306 | 14077 ft | 389 kts | 107° |
| 2026-04-24 23:28 | 46.00891 | 4.46002 | 13568 ft | 386 kts | 107° |
| 2026-04-24 23:28 | 45.99990 | 4.49586 | 13088 ft | 381 kts | 114° |
| 2026-04-24 23:29 | 45.98826 | 4.52978 | 12625 ft | 376 kts | 120° |
| 2026-04-24 23:29 | 45.97489 | 4.56177 | 12132 ft | 373 kts | 122° |
| 2026-04-24 23:29 | 45.95996 | 4.59182 | 11615 ft | 370 kts | 133° |
| 2026-04-24 23:29 | 45.94055 | 4.61527 | 11105 ft | 365 kts | 148° |
| 2026-04-24 23:30 | 45.91850 | 4.63204 | 10818 ft | 354 kts | 155° |
| 2026-04-24 23:30 | 45.89667 | 4.64705 | 10650 ft | 341 kts | 155° |
| 2026-04-24 23:30 | 45.87574 | 4.66134 | 10488 ft | 329 kts | 156° |
| 2026-04-24 23:30 | 45.85545 | 4.67529 | 10335 ft | 317 kts | 155° |
| 2026-04-24 23:31 | 45.83586 | 4.68886 | 10204 ft | 305 kts | 155° |
| 2026-04-24 23:31 | 45.81707 | 4.70194 | 9990 ft | 297 kts | 155° |
| 2026-04-24 23:31 | 45.79855 | 4.71484 | 9616 ft | 296 kts | 155° |
| 2026-04-24 23:31 | 45.78031 | 4.72758 | 9261 ft | 293 kts | 155° |
| 2026-04-24 23:32 | 45.76203 | 4.74035 | 8920 ft | 291 kts | 155° |
| 2026-04-24 23:32 | 45.74398 | 4.75297 | 8584 ft | 288 kts | 155° |
| 2026-04-24 23:32 | 45.72615 | 4.76542 | 8250 ft | 286 kts | 155° |
| 2026-04-24 23:32 | 45.70840 | 4.77782 | 7917 ft | 283 kts | 154° |
| 2026-04-24 23:33 | 45.69070 | 4.79016 | 7586 ft | 281 kts | 154° |
| 2026-04-24 23:33 | 45.67330 | 4.80229 | 7262 ft | 278 kts | 154° |
| 2026-04-24 23:33 | 45.65599 | 4.81434 | 6939 ft | 276 kts | 154° |
| 2026-04-24 23:33 | 45.63885 | 4.82626 | 6618 ft | 274 kts | 154° |
| 2026-04-24 23:34 | 45.62172 | 4.83817 | 6298 ft | 272 kts | 154° |
| 2026-04-24 23:34 | 45.60495 | 4.84994 | 5982 ft | 270 kts | 151° |
| 2026-04-24 23:34 | 45.59026 | 4.86597 | 5657 ft | 267 kts | 131° |
| 2026-04-24 23:34 | 45.57959 | 4.88740 | 5350 ft | 264 kts | 121° |
| 2026-04-24 23:35 | 45.57027 | 4.90972 | 5131 ft | 258 kts | 120° |
| 2026-04-24 23:35 | 45.56135 | 4.93138 | 4989 ft | 249 kts | 120° |
| 2026-04-24 23:35 | 45.55267 | 4.95216 | 4848 ft | 240 kts | 121° |
| 2026-04-24 23:35 | 45.54411 | 4.97240 | 4600 ft | 236 kts | 121° |
| 2026-04-24 23:36 | 45.53571 | 4.99209 | 4372 ft | 232 kts | 121° |
| 2026-04-24 23:36 | 45.52760 | 5.01171 | 4161 ft | 228 kts | 114° |
| 2026-04-24 23:36 | 45.52417 | 5.03332 | 3913 ft | 225 kts | 89° |
| 2026-04-24 23:36 | 45.52524 | 5.05531 | 3662 ft | 223 kts | 84° |
| 2026-04-24 23:37 | 45.52684 | 5.07742 | 3401 ft | 221 kts | 84° |
| 2026-04-24 23:37 | 45.53148 | 5.09799 | 3100 ft | 224 kts | 54° |
| 2026-04-24 23:37 | 45.55932 | 5.11486 | 2994 ft | 225 kts | 358° |
| 2026-04-24 23:38 | 45.57442 | 5.11267 | 2979 ft | 210 kts | 353° |
| 2026-04-24 23:38 | 45.58873 | 5.11001 | 2984 ft | 206 kts | 354° |
| 2026-04-24 23:38 | 45.60319 | 5.10783 | 2904 ft | 207 kts | 355° |
| 2026-04-24 23:38 | 45.61744 | 5.10607 | 2679 ft | 205 kts | 355° |
| 2026-04-24 23:39 | 45.63097 | 5.10448 | 2458 ft | 190 kts | 355° |
| 2026-04-24 23:39 | 45.64372 | 5.10295 | 2197 ft | 178 kts | 355° |
| 2026-04-24 23:39 | 45.65564 | 5.10149 | 1944 ft | 166 kts | 356° |
| 2026-04-24 23:39 | 45.66671 | 5.10014 | 1704 ft | 153 kts | 356° |
| 2026-04-24 23:40 | 45.67690 | 5.09890 | 1493 ft | 140 kts | 356° |
| 2026-04-24 23:40 | 45.68652 | 5.09774 | 1331 ft | 139 kts | 356° |
| 2026-04-24 23:40 | 45.69617 | 5.09657 | 1155 ft | 139 kts | 355° |
| 2026-04-24 23:40 | 45.70576 | 5.09540 | 973 ft | 138 kts | 355° |
| 2026-04-24 23:41 | 45.71541 | 5.09422 | 835 ft | 135 kts | 355° |
| 2026-04-24 23:41 | 45.72212 | 5.09346 | 829 ft | 53 kts | 354° |
| 2026-04-24 23:41 | 45.72445 | 5.09295 | 829 ft | 30 kts | 343° |
| 2026-04-24 23:41 | 45.72615 | 5.09163 | 829 ft | 24 kts | 327° |
| 2026-04-24 23:42 | 45.72741 | 5.09059 | 829 ft | 19 kts | 345° |
| 2026-04-24 23:42 | 45.72876 | 5.09037 | 829 ft | 18 kts | 355° |
| 2026-04-24 23:42 | 45.72974 | 5.08980 | 829 ft | 13 kts | 304° |
| 2026-04-24 23:42 | 45.72976 | 5.08854 | 829 ft | 12 kts | 262° |
| 2026-04-24 23:43 | 45.72966 | 5.08730 | 829 ft | 12 kts | 264° |
| 2026-04-24 23:43 | 45.72957 | 5.08608 | 829 ft | 12 kts | 264° |
| 2026-04-24 23:43 | 45.72948 | 5.08486 | 829 ft | 12 kts | 262° |
| 2026-04-24 23:43 | 45.72909 | 5.08379 | 829 ft | 12 kts | 218° |
| 2026-04-24 23:44 | 45.72825 | 5.08353 | 829 ft | 13 kts | 176° |
| 2026-04-24 23:44 | 45.72726 | 5.08364 | 829 ft | 15 kts | 175° |
| 2026-04-24 23:44 | 45.72611 | 5.08379 | 829 ft | 17 kts | 175° |
| 2026-04-24 23:44 | 45.72480 | 5.08394 | 829 ft | 20 kts | 175° |
| 2026-04-24 23:45 | 45.72337 | 5.08411 | 829 ft | 21 kts | 175° |
| 2026-04-24 23:45 | 45.72188 | 5.08430 | 829 ft | 21 kts | 174° |
| 2026-04-24 23:45 | 45.72037 | 5.08449 | 829 ft | 22 kts | 175° |
| 2026-04-24 23:45 | 45.71887 | 5.08467 | 829 ft | 21 kts | 175° |
| 2026-04-24 23:46 | 45.71742 | 5.08484 | 829 ft | 20 kts | 175° |
| 2026-04-24 23:46 | 45.71609 | 5.08500 | 829 ft | 18 kts | 175° |
| 2026-04-24 23:46 | 45.71490 | 5.08514 | 829 ft | 13 kts | 178° |
| 2026-04-24 23:46 | 45.71424 | 5.08440 | 829 ft | 13 kts | 256° |
| 2026-04-24 23:47 | 45.71417 | 5.08305 | 829 ft | 13 kts | 275° |
| 2026-04-24 23:47 | 45.71434 | 5.08184 | 829 ft | 9 kts | 287° |
| 2026-04-24 23:47 | 45.71488 | 5.08160 | 829 ft | 8 kts | 12° |
| 2026-04-24 23:47 | 45.71518 | 5.08171 | 829 ft | 1 kts | 14° |
| 2026-04-24 23:48 | 45.71523 | 5.08173 | 829 ft | 0 kts | 14° |